Relevés horaires Beauvechain (Belgique)


Relevés horaires à Beauvechain - Vendredi 03 Avr. 2020
Heure UTC1 Température [°C] Vent [km/h] Hum. [%] Pres.4 [hPa] Visi. [Km] Nébu. [octa] Préc.5 [mm] Cond.
2m. Res. Ros. Dir.2 Vit. Moy. Raf.3
23:00 6.6 6.6 -2.6 NNO 1.9 -- 3.7 52 1022.2(0.7/3h) 20 -- -- --
22:00 7.0 7.0 -3.3 NNO 1.9 -- 3.7 48 1022(1.0/3h) 20 -- -- --
21:00 6.8 6.8 -3.0 NNO 1.9 -- 5.6 50 1021.8(1.3/3h) 20 -- -- --
20:00 7.0 7.0 -3.1 NNO 1.9 -- 3.7 49 1021.5(1.4/3h) 20 -- -- --
19:00 6.5 6.5 -2.5 NNO 1.9 -- 5.6 53 1021(1.3/3h) 20 -- -- --
18:00 7.0 7.0 -2.2 NNO 3.7 -- 18.5 52 1020.5(1.0/3h) 20 -- -- --
17:00 9.1 8.1 -2.1 NO 7.4 -- 14.8 45 1019.8(0.8/3h) 20 -- -- --
16:00 9.0 7.6 -1.6 NNO 9.3 -- 14.8 47 1019.5(0.8/3h) 20 -- -- --
15:00 9.8 8.9 0.2 NO 7.4 -- 18.5 51 1019.2(0.7/3h) 20 -- -- --
14:00 10.3 9.1 0.2 ONO 9.3 -- 18.5 49 1018.8(0.6/3h) 20 -- -- --
13:00 10.1 8.3 -1.2 ONO 13.0 -- 18.5 45 1018.6(0.7/3h) 19 -- -- --
12:00 9.7 8.1 -0.5 NO 11.1 -- 14.8 49 1018.3(1.1/3h) 20 -- -- --
11:00 8.8 7.3 -0.5 ONO 9.3 -- 13.0 52 1018.3(1.6/3h) 20 -- -- --
10:00 8.1 6.9 1.5 O 7.4 -- 13.0 63 1018(1.7/3h) 20 -- -- --
09:00 8.8 7.7 2.8 O 7.4 -- 13.0 66 1017.3(1.8/3h) 20 -- -- --
08:00 7.8 6.6 2.8 O 7.4 -- 11.1 71 1016.7(1.8/3h) 20 -- -- --
07:00 6.1 5.1 3.0 OSO 5.6 -- 9.3 80 1016.2(1.6/3h) 17 -- -- --
06:00 5.0 3.9 3.0 OSO 5.6 -- 14.8 87 1015.7(1.3/3h) 16 -- -- --
05:00 5.3 4.2 3.2 OSO 5.6 -- 7.4 86 1015(0.9/3h) 15 -- -- --
04:00 6.1 5.1 3.5 OSO 5.6 -- 9.3 83 1014.6(0.8/3h) 18 -- -- --
03:00 5.8 4.2 4.3 OSO 7.4 -- 14.8 90 1014.2(0.4/3h) 10 -- -- --
02:00 5.9 4.3 4.1 OSO 7.4 -- 9.3 88 1014(0.1/3h) 13 -- -- --
01:00 6.5 5 4.1 OSO 7.4 -- 14.8 85 1013.6(-0.2/3h) 16 -- -- --
00:00 6.4 4.9 3.3 OSO 7.4 -- 11.1 81 1013.7(-0.3/3h) 19 -- -- --

1 Coordinated Universal Time. Actuellement il est 12:00 locale et 10:00 UTC.

2 Le vent souffle depuis la direction indiquée vers la direction oposée.

3 Les rafales max. sont disponible 40 min après l'heure du relevé.

4 Pour les stations d'altitude (plus de 600m) le géopotentiel du niveau le plus proche de la pression obligatoire est indiqué.

5 Les stations disposant d'un diffuseur peuvent indiquer "trace". Cela signifie que des précipitations ont touchés le sol mais que la quantité est inférieure à 0.1 mm.

Récapitulatif de la journée
Température [°C] Vent [km/h] Ensoleillement4 [h] Precipitations totale5 [mm] Pression [Hpa]
Min1 Max.2 Moy.3 Max. Min Max.
4.6 11.4 0 18.5 0 h 0 min 0 1013.6 1022.2

1 Température minimale relevée entre 18:00 UTC la veille et 18:00 UTC le jour donné.

2 Température maximale relevée entre 06:00 UTC le jour donné et 06:00 UTC le lendemain.

3 Vent moyen de la journée basé sur les relevés horaires.

4 Ensoleillement en heures relevé entre 06:00 UTC la veille et 06:00 UTC le jour donné.

5 Précipitations totales tombées entre 06:00 UTC la jour donné et 06:00 UTC le lendemain.

Graphiques horaires